createdAt,value
2022-10-26T00:00:02.041Z,1009.55
2022-10-26T00:03:09.282Z,1009.59
2022-10-26T00:06:16.316Z,1009.51
2022-10-26T00:09:23.574Z,1009.52
2022-10-26T00:12:30.943Z,1009.55
2022-10-26T00:15:37.587Z,1009.61
2022-10-26T00:18:44.613Z,1009.54
2022-10-26T00:21:51.946Z,1009.52
2022-10-26T00:24:58.585Z,1009.58
2022-10-26T00:28:05.983Z,1009.57
2022-10-26T00:31:12.949Z,1009.67
2022-10-26T00:34:19.437Z,1009.71
2022-10-26T00:37:26.719Z,1009.71
2022-10-26T00:40:33.526Z,1009.70
2022-10-26T00:43:42.987Z,1009.74
2022-10-26T00:46:50.470Z,1009.72
2022-10-26T00:49:57.636Z,1009.76
2022-10-26T00:53:04.796Z,1009.72
2022-10-26T00:56:12.180Z,1009.78
2022-10-26T00:59:19.308Z,1009.74
2022-10-26T01:02:26.333Z,1009.72
2022-10-26T01:05:33.384Z,1009.73
2022-10-26T01:08:40.879Z,1009.68
2022-10-26T01:11:48.039Z,1009.62
2022-10-26T01:14:55.045Z,1009.61
2022-10-26T01:18:02.315Z,1009.64
2022-10-26T01:21:09.756Z,1009.72
2022-10-26T01:24:16.910Z,1009.65
2022-10-26T01:27:24.423Z,1009.56
2022-10-26T01:30:31.125Z,1009.55
2022-10-26T01:33:38.559Z,1009.43
2022-10-26T01:36:45.871Z,1009.45
2022-10-26T01:39:52.757Z,1009.47
2022-10-26T01:43:00.400Z,1009.43
2022-10-26T01:46:07.672Z,1009.47
2022-10-26T01:49:14.322Z,1009.45
2022-10-26T01:52:21.695Z,1009.44
2022-10-26T01:55:28.872Z,1009.41
2022-10-26T01:58:36.163Z,1009.41
2022-10-26T02:01:43.653Z,1009.32
2022-10-26T02:04:50.580Z,1009.40
2022-10-26T02:07:57.679Z,1009.36
2022-10-26T02:11:05.057Z,1009.30
2022-10-26T02:14:12.221Z,1009.32
2022-10-26T02:17:19.401Z,1009.30
2022-10-26T02:20:26.639Z,1009.24
2022-10-26T02:23:34.041Z,1009.20
2022-10-26T02:26:41.261Z,1009.12
2022-10-26T02:29:48.610Z,1009.20
2022-10-26T02:32:56.164Z,1009.12
2022-10-26T02:36:03.595Z,1009.01
2022-10-26T02:39:10.837Z,1009.01
2022-10-26T02:42:18.464Z,1008.94
2022-10-26T02:45:25.193Z,1009.00
2022-10-26T02:48:32.743Z,1009.01
2022-10-26T02:51:40.267Z,1009.06
2022-10-26T02:54:47.026Z,1009.05
2022-10-26T02:57:54.459Z,1008.96
2022-10-26T03:01:02.067Z,1009.07
2022-10-26T03:04:08.790Z,1008.96
2022-10-26T03:07:16.151Z,1008.94
2022-10-26T03:10:23.410Z,1008.91
2022-10-26T03:13:30.499Z,1008.89
2022-10-26T03:16:38.100Z,1008.81
2022-10-26T03:19:45.081Z,1008.83
2022-10-26T03:22:52.305Z,1008.87
2022-10-26T03:25:59.478Z,1008.91
2022-10-26T03:29:06.842Z,1008.80
2022-10-26T03:32:14.072Z,1008.85
2022-10-26T03:35:21.162Z,1008.80
2022-10-26T03:38:28.695Z,1008.82
2022-10-26T03:41:35.843Z,1008.81
2022-10-26T03:44:42.794Z,1008.72
2022-10-26T03:47:50.235Z,1008.73
2022-10-26T03:50:56.895Z,1008.72
2022-10-26T03:54:04.387Z,1008.61
2022-10-26T03:57:11.927Z,1008.63
2022-10-26T04:00:18.664Z,1008.65
2022-10-26T04:03:26.159Z,1008.61
2022-10-26T04:06:33.932Z,1008.64
2022-10-26T04:09:40.881Z,1008.67
2022-10-26T04:12:48.401Z,1008.57
2022-10-26T04:15:55.812Z,1008.57
2022-10-26T04:19:02.623Z,1008.53
2022-10-26T04:22:10.580Z,1008.47
2022-10-26T04:25:17.785Z,1008.46
2022-10-26T04:28:25.214Z,1008.44
2022-10-26T04:31:32.853Z,1008.48
2022-10-26T04:34:40.114Z,1008.55
2022-10-26T04:37:47.500Z,1008.49
2022-10-26T04:40:54.984Z,1008.48
2022-10-26T04:44:02.658Z,1008.48
2022-10-26T04:47:09.942Z,1008.50
2022-10-26T04:50:17.317Z,1008.52
2022-10-26T04:53:24.633Z,1008.50
2022-10-26T04:56:31.828Z,1008.46
2022-10-26T04:59:38.882Z,1008.46
2022-10-26T05:02:46.104Z,1008.48
2022-10-26T05:05:54.001Z,1008.41
2022-10-26T05:09:01.180Z,1008.48
2022-10-26T05:12:08.345Z,1008.52
2022-10-26T05:15:15.474Z,1008.50
2022-10-26T05:18:22.867Z,1008.50
2022-10-26T05:21:29.918Z,1008.48
2022-10-26T05:24:37.351Z,1008.35
2022-10-26T05:27:44.815Z,1008.41
2022-10-26T05:30:52.087Z,1008.36
2022-10-26T05:33:59.202Z,1008.41
2022-10-26T05:37:06.600Z,1008.40
2022-10-26T05:40:13.666Z,1008.41
2022-10-26T05:43:21.239Z,1008.45
2022-10-26T05:46:29.040Z,1008.40
2022-10-26T05:49:36.092Z,1008.39
2022-10-26T05:52:43.663Z,1008.38
2022-10-26T05:55:51.382Z,1008.44
2022-10-26T05:58:58.214Z,1008.48
2022-10-26T06:02:05.651Z,1008.48
2022-10-26T06:05:12.754Z,1008.48
2022-10-26T06:08:20.073Z,1008.53
2022-10-26T06:11:27.452Z,1008.55
2022-10-26T06:14:34.456Z,1008.57
2022-10-26T06:17:41.787Z,1008.57
2022-10-26T06:20:49.013Z,1008.55
2022-10-26T06:23:56.741Z,1008.49
2022-10-26T06:27:04.130Z,1008.54
2022-10-26T06:30:11.326Z,1008.48
2022-10-26T06:33:29.055Z,1008.54
2022-10-26T06:36:22.758Z,1008.57
2022-10-26T06:39:30.473Z,1008.58
2022-10-26T06:42:37.985Z,1008.57
2022-10-26T06:45:44.793Z,1008.51
2022-10-26T06:48:52.242Z,1008.58
2022-10-26T06:51:59.809Z,1008.60
2022-10-26T06:55:06.540Z,1008.53
2022-10-26T06:58:14.021Z,1008.57
2022-10-26T07:01:20.955Z,1008.59
2022-10-26T07:04:28.464Z,1008.60
2022-10-26T07:07:36.048Z,1008.72
2022-10-26T07:10:42.940Z,1008.76
2022-10-26T07:13:50.558Z,1008.76
2022-10-26T07:16:58.217Z,1008.75
2022-10-26T07:20:05.106Z,1008.82
2022-10-26T07:23:13.121Z,1008.82
2022-10-26T07:26:20.881Z,1008.85
2022-10-26T07:29:28.444Z,1008.83
2022-10-26T07:32:35.951Z,1008.72
2022-10-26T07:35:42.923Z,1008.80
2022-10-26T07:38:50.223Z,1008.74
2022-10-26T07:41:57.643Z,1008.77
2022-10-26T07:45:04.296Z,1008.81
2022-10-26T07:48:11.856Z,1008.88
2022-10-26T07:51:18.975Z,1008.88
2022-10-26T07:54:26.127Z,1008.87
2022-10-26T07:57:33.704Z,1008.84
2022-10-26T08:00:40.958Z,1008.84
2022-10-26T08:03:48.248Z,1008.91
2022-10-26T08:06:55.778Z,1008.88
2022-10-26T08:10:02.973Z,1008.89
2022-10-26T08:13:10.262Z,1008.96
2022-10-26T08:16:17.392Z,1008.89
2022-10-26T08:19:25.055Z,1008.89
2022-10-26T08:22:32.226Z,1008.87
2022-10-26T08:25:39.354Z,1008.96
2022-10-26T08:28:46.886Z,1008.97
2022-10-26T08:31:54.121Z,1008.93
2022-10-26T08:35:01.234Z,1008.88
2022-10-26T08:38:08.666Z,1008.91
2022-10-26T08:41:15.547Z,1008.86
2022-10-26T08:44:23.387Z,1008.82
2022-10-26T08:47:31.266Z,1008.88
2022-10-26T08:50:40.538Z,1008.86
2022-10-26T08:53:39.475Z,1008.94
2022-10-26T08:56:50.017Z,1008.91
2022-10-26T08:59:47.365Z,1008.97
2022-10-26T09:02:54.915Z,1008.95
2022-10-26T09:06:01.774Z,1008.97
2022-10-26T09:09:09.398Z,1008.97
2022-10-26T09:12:16.935Z,1008.92
2022-10-26T09:15:23.679Z,1008.92
2022-10-26T09:18:31.099Z,1008.91
2022-10-26T09:21:38.447Z,1008.88
2022-10-26T09:24:45.749Z,1008.90
2022-10-26T09:27:53.373Z,1008.85
2022-10-26T09:31:00.366Z,1008.93
2022-10-26T09:34:07.513Z,1008.84
2022-10-26T09:37:14.954Z,1008.83
2022-10-26T09:40:22.120Z,1008.82
2022-10-26T09:43:29.296Z,1008.77
2022-10-26T09:46:36.626Z,1008.79
2022-10-26T09:49:44.090Z,1008.81
2022-10-26T09:52:51.737Z,1008.74
2022-10-26T09:55:59.197Z,1008.80
2022-10-26T09:59:06.432Z,1008.78
2022-10-26T10:02:13.911Z,1008.81
2022-10-26T10:05:27.506Z,1008.82
2022-10-26T10:08:25.395Z,1008.83
2022-10-26T10:11:32.913Z,1008.91
2022-10-26T10:14:40.081Z,1008.90
2022-10-26T10:17:49.493Z,1008.89
2022-10-26T10:20:48.706Z,1008.92
2022-10-26T10:23:56.297Z,1008.96
2022-10-26T10:27:03.411Z,1009.02
2022-10-26T10:30:10.419Z,1008.94
2022-10-26T10:33:18.112Z,1008.98
2022-10-26T10:36:25.034Z,1008.99
2022-10-26T10:39:32.401Z,1008.93
2022-10-26T10:42:39.924Z,1008.91
2022-10-26T10:45:46.674Z,1008.93
2022-10-26T10:48:54.164Z,1008.93
2022-10-26T10:52:01.776Z,1008.94
2022-10-26T10:55:08.699Z,1008.98
2022-10-26T10:58:16.098Z,1008.99
2022-10-26T11:01:23.602Z,1008.96
2022-10-26T11:04:30.848Z,1008.99
2022-10-26T11:07:38.319Z,1008.94
2022-10-26T11:10:45.434Z,1008.96
2022-10-26T11:13:52.650Z,1008.87
2022-10-26T11:17:00.131Z,1008.97
2022-10-26T11:20:11.121Z,1008.94
2022-10-26T11:23:10.689Z,1008.97
2022-10-26T11:26:18.056Z,1008.93
2022-10-26T11:29:25.660Z,1008.91
2022-10-26T11:32:32.713Z,1009.04
2022-10-26T11:35:39.967Z,1008.92
2022-10-26T11:38:56.707Z,1008.89
2022-10-26T11:41:51.213Z,1008.83
2022-10-26T11:44:58.692Z,1008.88
2022-10-26T11:48:05.743Z,1008.95
2022-10-26T11:51:12.614Z,1008.89
2022-10-26T11:57:28.323Z,1008.92
2022-10-26T12:00:35.420Z,1008.93
2022-10-26T12:03:43.063Z,1008.99
2022-10-26T12:06:50.122Z,1008.99
2022-10-26T12:09:57.738Z,1008.92
2022-10-26T12:13:05.623Z,1008.93
2022-10-26T12:16:12.521Z,1008.89
2022-10-26T12:19:19.835Z,1009.00
2022-10-26T12:22:27.443Z,1008.96
2022-10-26T12:25:34.355Z,1008.94
2022-10-26T12:28:41.827Z,1009.00
2022-10-26T12:31:49.478Z,1008.99
2022-10-26T12:34:56.779Z,1009.04
2022-10-26T12:38:04.470Z,1009.12
2022-10-26T12:41:11.851Z,1009.19
2022-10-26T12:44:19.200Z,1009.17
2022-10-26T12:47:26.908Z,1009.19
2022-10-26T12:50:34.090Z,1009.17
2022-10-26T12:53:45.787Z,1009.11
2022-10-26T12:56:42.445Z,1009.15
2022-10-26T12:59:50.096Z,1009.19
2022-10-26T13:02:57.527Z,1009.26
2022-10-26T13:06:04.794Z,1009.24
2022-10-26T13:09:14.141Z,1009.21
2022-10-26T13:12:14.094Z,1009.27
2022-10-26T13:15:21.373Z,1009.22
2022-10-26T13:18:29.040Z,1009.31
2022-10-26T13:21:36.023Z,1009.26
2022-10-26T13:24:43.626Z,1009.25
2022-10-26T13:27:51.716Z,1009.19
2022-10-26T13:30:58.757Z,1009.15
2022-10-26T13:34:06.238Z,1009.19
2022-10-26T13:37:13.578Z,1009.19
2022-10-26T13:40:20.348Z,1009.16
2022-10-26T13:43:27.629Z,1009.06
2022-10-26T13:46:34.770Z,1009.13
2022-10-26T13:49:41.753Z,1009.08
2022-10-26T13:52:49.381Z,1009.05
2022-10-26T13:55:56.655Z,1009.03
2022-10-26T13:59:03.873Z,1009.15
2022-10-26T14:02:10.996Z,1009.18
2022-10-26T14:05:18.146Z,1009.20
2022-10-26T14:08:25.511Z,1009.25
2022-10-26T14:11:33.218Z,1009.27
2022-10-26T14:14:40.270Z,1009.28
2022-10-26T14:17:47.662Z,1009.25
2022-10-26T14:20:54.870Z,1009.32
2022-10-26T14:24:02.029Z,1009.30
2022-10-26T14:27:09.269Z,1009.34
2022-10-26T14:30:22.426Z,1009.40
2022-10-26T14:33:19.455Z,1009.49
2022-10-26T14:36:26.206Z,1009.48
2022-10-26T14:39:33.887Z,1009.45
2022-10-26T14:42:40.958Z,1009.42
2022-10-26T14:45:49.585Z,1009.36
2022-10-26T14:48:57.524Z,1009.40
2022-10-26T14:52:05.032Z,1009.41
2022-10-26T14:55:11.842Z,1009.42
2022-10-26T14:58:19.435Z,1009.50
2022-10-26T15:01:28.276Z,1009.55
2022-10-26T15:04:27.213Z,1009.60
2022-10-26T15:07:34.643Z,1009.83
2022-10-26T15:10:41.482Z,1009.88
2022-10-26T15:13:48.960Z,1009.91
2022-10-26T15:16:55.996Z,1010.00
2022-10-26T15:20:03.522Z,1010.12
2022-10-26T15:23:11.032Z,1010.20
2022-10-26T15:26:18.172Z,1010.22
2022-10-26T15:29:25.183Z,1010.32
2022-10-26T15:32:32.351Z,1010.30
2022-10-26T15:35:39.467Z,1010.27
2022-10-26T15:38:46.552Z,1010.25
2022-10-26T15:41:53.553Z,1010.34
2022-10-26T15:45:00.848Z,1010.41
2022-10-26T15:48:08.110Z,1010.41
2022-10-26T15:51:15.132Z,1010.44
2022-10-26T15:54:22.813Z,1010.37
2022-10-26T15:57:29.692Z,1010.48
2022-10-26T16:00:37.040Z,1010.48
2022-10-26T16:03:44.376Z,1010.51
2022-10-26T16:06:51.145Z,1010.54
2022-10-26T16:09:58.715Z,1010.54
2022-10-26T16:13:06.345Z,1010.69
2022-10-26T16:16:13.466Z,1010.69
2022-10-26T16:19:36.093Z,1010.66
2022-10-26T16:22:24.751Z,1010.77
2022-10-26T16:25:32.390Z,1010.71
2022-10-26T16:28:40.158Z,1010.78
2022-10-26T16:31:47.012Z,1010.80
2022-10-26T16:34:54.616Z,1010.87
2022-10-26T16:38:02.402Z,1010.86
2022-10-26T16:41:09.333Z,1010.87
2022-10-26T16:44:16.901Z,1010.90
2022-10-26T16:47:24.291Z,1010.94
2022-10-26T16:50:35.496Z,1011.00
2022-10-26T16:53:33.437Z,1010.96
2022-10-26T16:56:41.679Z,1010.94
2022-10-26T16:59:49.589Z,1011.06
2022-10-26T17:02:57.141Z,1010.95
2022-10-26T17:06:04.474Z,1011.09
2022-10-26T17:09:12.098Z,1011.08
2022-10-26T17:12:19.381Z,1011.16
2022-10-26T17:15:28.859Z,1011.25
2022-10-26T17:18:35.879Z,1011.38
2022-10-26T17:21:43.114Z,1011.44
2022-10-26T17:24:50.736Z,1011.46
2022-10-26T17:27:57.846Z,1011.43
2022-10-26T17:31:05.163Z,1011.46
2022-10-26T17:34:12.708Z,1011.48
2022-10-26T17:37:19.721Z,1011.56
2022-10-26T17:40:27.243Z,1011.59
2022-10-26T17:43:34.580Z,1011.58
2022-10-26T17:46:41.524Z,1011.66
2022-10-26T17:49:49.094Z,1011.77
2022-10-26T17:52:56.134Z,1011.83
2022-10-26T17:56:03.454Z,1011.86
2022-10-26T17:59:10.955Z,1011.90
2022-10-26T18:02:18.214Z,1011.89
2022-10-26T18:05:25.246Z,1011.95
2022-10-26T18:08:32.557Z,1011.99
2022-10-26T18:11:39.592Z,1012.04
2022-10-26T18:14:47.120Z,1012.05
2022-10-26T18:17:58.271Z,1012.09
2022-10-26T18:20:57.401Z,1012.14
2022-10-26T18:24:04.932Z,1012.17
2022-10-26T18:27:12.342Z,1012.16
2022-10-26T18:30:19.375Z,1012.22
2022-10-26T18:33:27.006Z,1012.29
2022-10-26T18:36:34.361Z,1012.33
2022-10-26T18:39:41.386Z,1012.37
2022-10-26T18:42:48.732Z,1012.40
2022-10-26T18:45:55.947Z,1012.41
2022-10-26T18:49:03.067Z,1012.46
2022-10-26T18:52:10.379Z,1012.49
2022-10-26T18:55:17.359Z,1012.54
2022-10-26T18:58:24.538Z,1012.57
2022-10-26T19:01:32.171Z,1012.67
2022-10-26T19:04:40.263Z,1012.68
2022-10-26T19:07:47.644Z,1012.71
2022-10-26T19:10:55.174Z,1012.75
2022-10-26T19:14:02.796Z,1012.85
2022-10-26T19:17:09.814Z,1012.88
2022-10-26T19:20:16.876Z,1012.84
2022-10-26T19:23:24.370Z,1012.88
2022-10-26T19:26:34.701Z,1012.91
2022-10-26T19:29:32.263Z,1013.00
2022-10-26T19:32:39.690Z,1013.01
2022-10-26T19:35:46.507Z,1013.10
2022-10-26T19:38:54.124Z,1013.18
2022-10-26T19:42:01.725Z,1013.18
2022-10-26T19:45:09.113Z,1013.23
2022-10-26T19:48:16.793Z,1013.29
2022-10-26T19:51:24.013Z,1013.31
2022-10-26T19:54:31.446Z,1013.36
2022-10-26T19:57:39.125Z,1013.36
2022-10-26T20:00:46.333Z,1013.37
2022-10-26T20:03:54.530Z,1013.45
2022-10-26T20:07:02.397Z,1013.52
2022-10-26T20:10:09.343Z,1013.55
2022-10-26T20:13:16.351Z,1013.58
2022-10-26T20:16:23.890Z,1013.64
2022-10-26T20:19:31.162Z,1013.64
2022-10-26T20:22:38.691Z,1013.65
2022-10-26T20:25:45.873Z,1013.73
2022-10-26T20:28:52.994Z,1013.78
2022-10-26T20:32:00.567Z,1013.85
2022-10-26T20:35:07.852Z,1013.85
2022-10-26T20:38:15.095Z,1013.92
2022-10-26T20:41:22.684Z,1013.90
2022-10-26T20:44:30.049Z,1013.92
2022-10-26T20:47:37.264Z,1013.95
2022-10-26T20:50:44.347Z,1014.04
2022-10-26T20:53:52.066Z,1014.04
2022-10-26T20:56:59.039Z,1014.04
2022-10-26T21:00:06.162Z,1014.13
2022-10-26T21:03:13.457Z,1014.10
2022-10-26T21:06:20.725Z,1014.19
2022-10-26T21:09:28.582Z,1014.17
2022-10-26T21:12:37.212Z,1014.28
2022-10-26T21:15:44.024Z,1014.33
2022-10-26T21:18:51.523Z,1014.38
2022-10-26T21:21:58.933Z,1014.38
2022-10-26T21:25:05.756Z,1014.40
2022-10-26T21:28:13.253Z,1014.43
2022-10-26T21:31:20.675Z,1014.47
2022-10-26T21:34:27.507Z,1014.52
2022-10-26T21:37:35.038Z,1014.55
2022-10-26T21:40:42.199Z,1014.53
2022-10-26T21:43:49.378Z,1014.56
2022-10-26T21:46:57.047Z,1014.50
2022-10-26T21:50:04.174Z,1014.49
2022-10-26T21:53:11.381Z,1014.60
2022-10-26T21:56:18.753Z,1014.58
2022-10-26T21:59:25.816Z,1014.61
2022-10-26T22:02:33.225Z,1014.58
2022-10-26T22:05:43.650Z,1014.64
2022-10-26T22:08:42.423Z,1014.63
2022-10-26T22:11:49.756Z,1014.61
2022-10-26T22:14:56.457Z,1014.64
2022-10-26T22:18:03.727Z,1014.61
2022-10-26T22:21:10.738Z,1014.62
2022-10-26T22:24:17.628Z,1014.67
2022-10-26T22:27:25.001Z,1014.73
2022-10-26T22:30:31.774Z,1014.68
2022-10-26T22:33:39.151Z,1014.70
2022-10-26T22:36:46.438Z,1014.63
2022-10-26T22:39:53.180Z,1014.65
2022-10-26T22:43:00.573Z,1014.60
2022-10-26T22:46:08.037Z,1014.62
2022-10-26T22:49:14.749Z,1014.56
2022-10-26T22:52:22.337Z,1014.66
2022-10-26T22:55:29.526Z,1014.67
2022-10-26T22:58:36.599Z,1014.67
2022-10-26T23:01:43.875Z,1014.71
2022-10-26T23:04:51.069Z,1014.79
2022-10-26T23:07:58.252Z,1014.84
2022-10-26T23:11:05.775Z,1014.91
2022-10-26T23:14:12.945Z,1015.00
2022-10-26T23:17:20.041Z,1015.06
2022-10-26T23:20:27.143Z,1015.01
2022-10-26T23:23:34.394Z,1015.05
2022-10-26T23:26:41.564Z,1015.15
2022-10-26T23:29:48.708Z,1015.17
2022-10-26T23:32:56.033Z,1015.17
2022-10-26T23:36:03.317Z,1015.22
2022-10-26T23:39:10.431Z,1015.22
2022-10-26T23:42:17.879Z,1015.21
2022-10-26T23:45:24.969Z,1015.27
2022-10-26T23:48:32.038Z,1015.21
2022-10-26T23:51:39.412Z,1015.18
2022-10-26T23:54:46.257Z,1015.22
2022-10-26T23:57:53.847Z,1015.21
